createdAt,value
2023-03-29T00:04:36.864Z,4.17
2023-03-29T00:14:40.078Z,3.60
2023-03-29T00:24:47.685Z,4.50
2023-03-29T00:34:50.976Z,3.70
2023-03-29T00:45:05.336Z,4.60
2023-03-29T00:55:13.217Z,3.30
2023-03-29T01:05:22.809Z,3.20
2023-03-29T01:15:29.789Z,3.87
2023-03-29T01:25:41.301Z,4.23
2023-03-29T01:35:50.141Z,4.27
2023-03-29T01:46:02.026Z,3.77
2023-03-29T01:56:12.658Z,3.53
2023-03-29T02:06:20.581Z,4.90
2023-03-29T02:16:25.494Z,2.70
2023-03-29T02:26:29.241Z,1.50
2023-03-29T02:36:41.542Z,2.10
2023-03-29T02:46:45.441Z,1.60
2023-03-29T02:56:51.576Z,1.97
2023-03-29T03:06:54.904Z,1.70
2023-03-29T03:17:00.650Z,1.20
2023-03-29T03:27:05.288Z,2.50
2023-03-29T03:37:11.929Z,2.17
2023-03-29T03:47:15.614Z,1.70
2023-03-29T03:57:21.073Z,4.50
2023-03-29T04:07:27.645Z,4.23
2023-03-29T04:17:32.288Z,2.17
2023-03-29T04:27:54.208Z,2.40
2023-03-29T04:38:31.025Z,2.83
2023-03-29T04:48:36.622Z,1.90
2023-03-29T04:58:42.259Z,2.30
2023-03-29T05:08:46.146Z,3.60
2023-03-29T05:18:58.787Z,1.47
2023-03-29T05:29:02.655Z,3.53
2023-03-29T05:39:07.453Z,2.50
2023-03-29T05:49:12.273Z,2.40
2023-03-29T05:59:35.541Z,2.20
2023-03-29T06:09:40.486Z,3.73
2023-03-29T06:19:46.242Z,6.87
2023-03-29T06:29:50.525Z,4.50
2023-03-29T06:39:55.577Z,5.07
2023-03-29T06:50:04.375Z,9.77
2023-03-29T07:00:18.256Z,8.43
2023-03-29T07:10:45.724Z,6.60
2023-03-29T07:21:10.589Z,3.33
2023-03-29T07:31:15.591Z,3.47
2023-03-29T07:41:24.540Z,5.57
2023-03-29T07:51:36.614Z,5.50
2023-03-29T08:01:45.990Z,8.07
2023-03-29T08:12:07.880Z,5.95
2023-03-29T08:22:15.610Z,5.45
2023-03-29T08:32:39.698Z,6.65
2023-03-29T08:43:09.554Z,5.72
2023-03-29T08:53:36.523Z,3.30
2023-03-29T09:04:10.698Z,3.97
2023-03-29T09:15:06.698Z,3.20
2023-03-29T09:25:21.304Z,7.05
2023-03-29T09:35:29.082Z,5.07
2023-03-29T09:45:38.492Z,4.72
2023-03-29T09:55:42.192Z,4.18
2023-03-29T10:06:01.605Z,3.75
2023-03-29T10:16:07.953Z,8.35
2023-03-29T10:26:21.295Z,3.50
2023-03-29T10:36:27.050Z,4.35
2023-03-29T10:46:33.645Z,5.10
2023-03-29T10:56:41.348Z,5.95
2023-03-29T11:06:56.015Z,5.97
2023-03-29T11:17:11.596Z,3.60
2023-03-29T11:27:25.566Z,6.68
2023-03-29T11:37:38.318Z,5.95
2023-03-29T11:47:45.561Z,7.32
2023-03-29T11:57:53.823Z,5.70
2023-03-29T12:08:04.807Z,5.75
2023-03-29T12:18:17.261Z,7.38
2023-03-29T12:28:52.096Z,6.07
2023-03-29T12:38:55.331Z,7.65
2023-03-29T12:49:27.979Z,5.82
2023-03-29T12:59:39.815Z,5.82
2023-03-29T13:09:51.876Z,9.98
2023-03-29T13:20:14.033Z,6.82
2023-03-29T13:30:26.231Z,8.20
2023-03-29T13:40:34.899Z,8.63
2023-03-29T13:50:41.465Z,7.78
2023-03-29T14:00:50.987Z,8.48
2023-03-29T14:10:56.254Z,5.03
2023-03-29T14:21:01.965Z,7.15
2023-03-29T14:31:07.867Z,7.93
2023-03-29T14:41:11.170Z,7.72
2023-03-29T14:51:16.301Z,6.45
2023-03-29T15:01:22.155Z,6.53
2023-03-29T15:11:28.582Z,4.47
2023-03-29T15:21:34.015Z,5.65
2023-03-29T15:31:41.247Z,4.90
2023-03-29T15:41:46.116Z,6.75
2023-03-29T15:51:52.726Z,7.15
2023-03-29T16:01:57.527Z,6.28
2023-03-29T16:12:02.097Z,7.65
2023-03-29T16:22:07.439Z,7.25
2023-03-29T16:32:12.710Z,8.35
2023-03-29T16:42:16.076Z,7.05
2023-03-29T16:52:21.182Z,11.25
2023-03-29T17:02:24.483Z,7.78
2023-03-29T17:12:29.322Z,7.50
2023-03-29T17:22:32.646Z,7.93
2023-03-29T17:32:37.307Z,7.30
2023-03-29T17:42:40.601Z,9.63
2023-03-29T17:52:45.629Z,11.50
2023-03-29T18:02:48.989Z,15.38
2023-03-29T18:12:54.739Z,10.38
2023-03-29T18:22:57.944Z,10.27
2023-03-29T18:33:02.587Z,7.10
2023-03-29T18:43:05.901Z,7.60
2023-03-29T18:53:10.581Z,8.38
2023-03-29T19:03:14.091Z,9.23
2023-03-29T19:13:19.031Z,9.57
2023-03-29T19:23:22.595Z,9.43
2023-03-29T19:33:27.196Z,9.30
2023-03-29T19:43:31.680Z,9.93
2023-03-29T19:53:38.729Z,11.85
2023-03-29T20:03:43.833Z,12.15
2023-03-29T20:13:48.986Z,10.18
2023-03-29T20:23:53.314Z,10.40
2023-03-29T20:33:57.903Z,12.15
2023-03-29T20:44:02.935Z,9.85
2023-03-29T20:54:07.733Z,14.20
2023-03-29T21:04:11.186Z,6.38
2023-03-29T21:14:19.481Z,9.80
2023-03-29T21:24:23.241Z,12.85
2023-03-29T21:34:27.801Z,12.57
2023-03-29T21:44:33.161Z,13.88
2023-03-29T21:54:39.004Z,7.22
2023-03-29T22:04:42.223Z,12.27
2023-03-29T22:14:46.876Z,12.00
2023-03-29T22:24:52.583Z,15.50
2023-03-29T22:34:57.232Z,11.70
2023-03-29T22:45:00.477Z,11.55
2023-03-29T22:55:05.580Z,13.60
2023-03-29T23:05:09.655Z,11.85
2023-03-29T23:15:14.707Z,12.00
2023-03-29T23:25:17.942Z,9.60
2023-03-29T23:35:22.644Z,6.78
2023-03-29T23:45:27.557Z,15.82
2023-03-29T23:55:32.175Z,13.90
